createdAt,value
2019-03-06T00:00:52.067Z,12.37
2019-03-06T00:03:19.521Z,10.97
2019-03-06T00:05:49.020Z,15.83
2019-03-06T00:08:16.468Z,11.67
2019-03-06T00:10:46.322Z,13.37
2019-03-06T00:13:16.417Z,14.77
2019-03-06T00:15:44.160Z,12.33
2019-03-06T00:18:11.592Z,15.47
2019-03-06T00:20:39.016Z,17.20
2019-03-06T00:23:06.431Z,13.47
2019-03-06T00:25:33.871Z,12.27
2019-03-06T00:28:02.302Z,12.27
2019-03-06T00:30:32.158Z,10.87
2019-03-06T00:33:00.834Z,11.93
2019-03-06T00:35:34.021Z,14.97
2019-03-06T00:38:02.806Z,14.97
2019-03-06T00:40:48.029Z,13.10
2019-03-06T00:43:17.936Z,11.33
2019-03-06T00:45:45.339Z,13.47
2019-03-06T00:48:16.167Z,15.10
2019-03-06T00:50:43.576Z,15.63
2019-03-06T00:53:11.071Z,12.07
2019-03-06T00:55:38.496Z,11.40
2019-03-06T00:58:09.631Z,13.10
2019-03-06T01:00:37.060Z,11.90
2019-03-06T01:03:07.934Z,9.83
2019-03-06T01:05:35.450Z,11.97
2019-03-06T01:08:02.883Z,14.13
2019-03-06T01:10:30.307Z,14.27
2019-03-06T01:13:00.681Z,13.37
2019-03-06T01:15:29.272Z,10.80
2019-03-06T01:17:56.707Z,16.03
2019-03-06T01:20:24.157Z,11.97
2019-03-06T01:22:51.615Z,12.33
2019-03-06T01:25:19.063Z,11.43
2019-03-06T01:27:49.360Z,10.90
2019-03-06T01:30:19.816Z,14.17
2019-03-06T01:32:47.246Z,11.70
2019-03-06T01:35:33.157Z,14.20
2019-03-06T01:38:00.654Z,11.87
2019-03-06T01:40:39.947Z,9.83
2019-03-06T01:43:07.410Z,8.57
2019-03-06T01:45:34.836Z,9.70
2019-03-06T01:48:02.284Z,8.70
2019-03-06T01:50:29.723Z,10.50
2019-03-06T01:52:59.647Z,13.60
2019-03-06T01:55:27.836Z,12.37
2019-03-06T01:57:55.266Z,14.20
2019-03-06T02:00:22.724Z,11.47
2019-03-06T02:02:53.192Z,12.77
2019-03-06T02:05:20.918Z,10.87
2019-03-06T02:07:48.373Z,9.50
2019-03-06T02:10:15.813Z,10.70
2019-03-06T02:12:43.252Z,11.93
2019-03-06T02:15:14.725Z,8.93
2019-03-06T02:17:42.168Z,8.87
2019-03-06T02:20:14.525Z,11.80
2019-03-06T02:22:41.967Z,11.03
2019-03-06T02:25:09.410Z,10.93
2019-03-06T02:27:38.229Z,12.27
2019-03-06T02:30:08.081Z,11.63
2019-03-06T02:32:37.786Z,10.93
2019-03-06T02:35:05.241Z,9.00
2019-03-06T02:37:32.699Z,14.47
2019-03-06T02:40:00.385Z,10.07
2019-03-06T02:42:27.604Z,11.17
2019-03-06T02:44:55.013Z,11.27
2019-03-06T02:47:22.490Z,12.83
2019-03-06T02:49:49.933Z,8.07
2019-03-06T02:52:17.382Z,12.67
2019-03-06T02:54:44.829Z,9.47
2019-03-06T02:57:15.092Z,14.00
2019-03-06T02:59:43.259Z,11.57
2019-03-06T03:02:14.487Z,12.37
2019-03-06T03:04:47.043Z,11.53
2019-03-06T03:07:14.537Z,9.03
2019-03-06T03:09:43.053Z,10.93
2019-03-06T03:12:10.508Z,11.87
2019-03-06T03:14:37.933Z,11.43
2019-03-06T03:17:05.391Z,15.20
2019-03-06T03:19:33.884Z,11.80
2019-03-06T03:22:02.396Z,14.90
2019-03-06T03:24:29.881Z,11.27
2019-03-06T03:26:57.303Z,8.67
2019-03-06T03:29:25.967Z,12.27
2019-03-06T03:31:53.406Z,9.57
2019-03-06T03:34:20.808Z,13.23
2019-03-06T03:36:48.251Z,12.30
2019-03-06T03:39:16.763Z,12.13
2019-03-06T03:41:44.207Z,7.90
2019-03-06T03:44:11.629Z,15.93
2019-03-06T03:46:39.074Z,11.10
2019-03-06T03:49:06.485Z,8.20
2019-03-06T03:51:34.741Z,8.83
2019-03-06T03:54:02.154Z,11.70
2019-03-06T03:56:29.613Z,10.20
2019-03-06T03:58:58.318Z,9.90
2019-03-06T04:01:25.795Z,10.23
2019-03-06T04:03:53.241Z,9.23
2019-03-06T04:06:21.961Z,9.03
2019-03-06T04:08:49.399Z,7.77
2019-03-06T04:11:19.349Z,8.63
2019-03-06T04:13:47.114Z,9.73
2019-03-06T04:16:15.764Z,10.47
2019-03-06T04:18:46.878Z,8.97
2019-03-06T04:21:14.282Z,11.53
2019-03-06T04:23:41.772Z,6.07
2019-03-06T04:26:09.185Z,8.57
2019-03-06T04:28:36.651Z,6.40
2019-03-06T04:31:05.168Z,8.50
2019-03-06T04:33:32.579Z,8.63
2019-03-06T04:35:59.997Z,10.57
2019-03-06T04:38:27.429Z,8.43
2019-03-06T04:40:57.673Z,9.53
2019-03-06T04:43:26.611Z,6.70
2019-03-06T04:45:54.055Z,9.37
2019-03-06T04:48:21.461Z,5.50
2019-03-06T04:50:48.912Z,8.23
2019-03-06T04:53:16.336Z,7.03
2019-03-06T04:55:48.912Z,6.37
2019-03-06T04:58:16.329Z,7.00
2019-03-06T05:00:43.801Z,7.60
2019-03-06T05:03:11.257Z,4.63
2019-03-06T05:05:38.686Z,5.03
2019-03-06T05:08:06.096Z,8.70
2019-03-06T05:10:33.513Z,5.20
2019-03-06T05:13:00.953Z,5.07
2019-03-06T05:15:28.377Z,6.20
2019-03-06T05:17:58.537Z,4.33
2019-03-06T05:20:25.945Z,5.43
2019-03-06T05:22:54.685Z,5.60
2019-03-06T05:25:22.096Z,3.57
2019-03-06T05:27:49.572Z,5.80
2019-03-06T05:30:17.010Z,4.73
2019-03-06T05:32:54.194Z,7.13
2019-03-06T05:35:30.733Z,5.43
2019-03-06T05:38:10.035Z,8.53
2019-03-06T05:40:40.892Z,3.83
2019-03-06T05:43:11.375Z,5.53
2019-03-06T05:45:40.129Z,6.53
2019-03-06T05:48:07.579Z,7.17
2019-03-06T05:50:35.013Z,6.63
2019-03-06T05:53:09.791Z,4.87
2019-03-06T05:55:38.231Z,4.43
2019-03-06T05:58:05.676Z,5.27
2019-03-06T06:00:35.743Z,6.13
2019-03-06T06:03:03.144Z,5.73
2019-03-06T06:05:30.867Z,6.93
2019-03-06T06:07:58.562Z,10.00
2019-03-06T06:10:26.033Z,6.30
2019-03-06T06:12:53.464Z,5.57
2019-03-06T06:15:20.876Z,6.17
2019-03-06T06:17:50.591Z,7.90
2019-03-06T06:20:18.027Z,7.30
2019-03-06T06:23:00.911Z,4.80
2019-03-06T06:25:28.323Z,3.17
2019-03-06T06:27:55.785Z,4.80
2019-03-06T06:30:23.487Z,4.83
2019-03-06T06:32:51.288Z,6.53
2019-03-06T06:35:18.694Z,7.27
2019-03-06T06:37:46.124Z,3.53
2019-03-06T06:40:13.582Z,3.57
2019-03-06T06:42:41.064Z,4.97
2019-03-06T06:45:12.836Z,5.47
2019-03-06T06:48:07.866Z,7.63
2019-03-06T06:50:36.263Z,6.27
2019-03-06T06:53:13.236Z,3.37
2019-03-06T06:55:40.676Z,3.57
2019-03-06T06:58:20.447Z,3.53
2019-03-06T07:00:57.406Z,6.87
2019-03-06T07:03:59.037Z,3.93
2019-03-06T07:06:26.589Z,2.50
2019-03-06T07:08:54.012Z,6.93
2019-03-06T07:11:22.672Z,5.97
2019-03-06T07:13:59.085Z,4.30
2019-03-06T07:16:26.528Z,5.93
2019-03-06T07:19:12.090Z,7.73
2019-03-06T07:21:58.230Z,3.63
2019-03-06T07:24:34.446Z,3.23
2019-03-06T07:27:01.983Z,6.70
2019-03-06T07:29:42.041Z,5.43
2019-03-06T07:32:09.503Z,5.43
2019-03-06T07:34:48.430Z,4.80
2019-03-06T07:37:28.258Z,4.90
2019-03-06T07:39:50.490Z,4.53
2019-03-06T07:42:21.769Z,7.33
2019-03-06T07:45:25.968Z,5.03
2019-03-06T07:47:56.257Z,5.23
2019-03-06T07:50:32.278Z,7.47
2019-03-06T07:53:40.259Z,4.93
2019-03-06T07:56:08.020Z,5.53
2019-03-06T07:58:50.536Z,7.40
2019-03-06T08:01:17.999Z,6.83
2019-03-06T08:03:45.416Z,6.27
2019-03-06T08:06:13.833Z,7.23
2019-03-06T08:08:41.283Z,6.20
2019-03-06T08:11:09.563Z,5.17
2019-03-06T08:13:37.036Z,10.07
2019-03-06T08:16:04.490Z,4.30
2019-03-06T08:18:35.070Z,7.83
2019-03-06T08:21:14.753Z,5.87
2019-03-06T08:23:47.642Z,8.17
2019-03-06T08:26:15.140Z,5.47
2019-03-06T08:28:42.548Z,5.70
2019-03-06T08:31:21.384Z,6.57
2019-03-06T08:33:50.190Z,8.27
2019-03-06T08:36:18.259Z,4.30
2019-03-06T08:38:45.679Z,4.53
2019-03-06T08:41:13.135Z,4.10
2019-03-06T08:43:40.584Z,7.70
2019-03-06T08:46:16.271Z,3.77
2019-03-06T08:49:01.929Z,4.97
2019-03-06T08:51:41.342Z,4.70
2019-03-06T08:54:17.188Z,4.83
2019-03-06T08:56:57.916Z,7.10
2019-03-06T08:59:31.552Z,5.87
2019-03-06T09:02:17.976Z,5.23
2019-03-06T09:04:45.460Z,4.83
2019-03-06T09:07:32.106Z,5.77
2019-03-06T09:10:05.075Z,4.03
2019-03-06T09:12:35.536Z,5.40
2019-03-06T09:15:09.023Z,6.73
2019-03-06T09:17:39.307Z,3.97
2019-03-06T09:20:24.809Z,3.23
2019-03-06T09:22:58.197Z,5.00
2019-03-06T09:25:31.786Z,4.60
2019-03-06T09:28:12.641Z,3.90
2019-03-06T09:30:42.785Z,7.30
2019-03-06T09:33:11.568Z,5.47
2019-03-06T09:35:46.112Z,6.33
2019-03-06T09:38:16.625Z,4.57
2019-03-06T09:40:55.827Z,7.77
2019-03-06T09:43:35.335Z,5.60
2019-03-06T09:46:12.086Z,6.93
2019-03-06T09:48:39.546Z,6.47
2019-03-06T09:51:25.071Z,5.30
2019-03-06T09:53:52.659Z,6.53
2019-03-06T09:56:20.383Z,6.60
2019-03-06T09:58:50.892Z,3.93
2019-03-06T10:01:25.316Z,5.00
2019-03-06T10:04:01.166Z,4.70
2019-03-06T10:06:34.980Z,4.90
2019-03-06T10:09:08.023Z,4.60
2019-03-06T10:11:45.628Z,4.07
2019-03-06T10:14:31.560Z,7.13
2019-03-06T10:17:06.322Z,7.17
2019-03-06T10:19:34.109Z,7.33
2019-03-06T10:22:09.115Z,5.73
2019-03-06T10:24:36.591Z,5.53
2019-03-06T10:27:04.505Z,4.63
2019-03-06T10:29:32.012Z,5.40
2019-03-06T10:31:59.443Z,5.60
2019-03-06T10:34:27.103Z,6.67
2019-03-06T10:36:54.583Z,5.90
2019-03-06T10:39:23.058Z,4.30
2019-03-06T10:41:51.625Z,5.57
2019-03-06T10:44:19.351Z,5.23
2019-03-06T10:46:46.769Z,4.80
2019-03-06T10:49:14.226Z,8.00
2019-03-06T10:51:41.631Z,9.20
2019-03-06T10:54:09.144Z,5.87
2019-03-06T10:56:36.561Z,6.47
2019-03-06T10:59:04.077Z,4.43
2019-03-06T11:01:31.547Z,5.67
2019-03-06T11:04:18.443Z,7.80
2019-03-06T11:06:46.757Z,4.33
2019-03-06T11:09:15.402Z,4.43
2019-03-06T11:11:42.960Z,5.33
2019-03-06T11:14:10.366Z,4.80
2019-03-06T11:16:39.695Z,3.70
2019-03-06T11:19:07.118Z,5.53
2019-03-06T11:21:34.574Z,6.53
2019-03-06T11:24:02.045Z,7.80
2019-03-06T11:26:29.500Z,6.03
2019-03-06T11:29:00.727Z,6.13
2019-03-06T11:31:29.729Z,5.60
2019-03-06T11:33:57.155Z,5.90
2019-03-06T11:36:25.565Z,5.23
2019-03-06T11:38:55.489Z,6.33
2019-03-06T11:41:22.942Z,7.27
2019-03-06T11:43:51.540Z,4.63
2019-03-06T11:46:19.320Z,8.13
2019-03-06T11:48:46.782Z,4.80
2019-03-06T11:51:14.607Z,6.93
2019-03-06T11:53:42.099Z,5.10
2019-03-06T11:56:12.566Z,5.73
2019-03-06T11:58:39.968Z,5.33
2019-03-06T12:01:07.387Z,3.60
2019-03-06T12:03:35.267Z,6.20
2019-03-06T12:06:02.693Z,5.30
2019-03-06T12:08:33.018Z,6.90
2019-03-06T12:11:00.425Z,5.37
2019-03-06T12:13:27.864Z,4.87
2019-03-06T12:15:55.330Z,8.50
2019-03-06T12:18:25.336Z,5.00
2019-03-06T12:20:53.839Z,5.10
2019-03-06T12:23:21.287Z,5.37
2019-03-06T12:25:54.383Z,4.33
2019-03-06T12:28:21.847Z,6.47
2019-03-06T12:30:50.569Z,4.90
2019-03-06T12:33:20.662Z,4.93
2019-03-06T12:35:49.316Z,4.47
2019-03-06T12:38:17.951Z,5.20
2019-03-06T12:40:45.404Z,8.13
2019-03-06T12:43:15.011Z,6.17
2019-03-06T12:45:42.419Z,4.13
2019-03-06T12:48:09.855Z,6.93
2019-03-06T12:50:39.919Z,5.07
2019-03-06T12:53:08.413Z,3.83
2019-03-06T12:55:35.975Z,4.73
2019-03-06T12:58:03.443Z,6.17
2019-03-06T13:00:33.215Z,8.47
2019-03-06T13:03:00.658Z,5.17
2019-03-06T13:05:29.116Z,6.83
2019-03-06T13:07:56.517Z,5.40
2019-03-06T13:10:25.215Z,4.10
2019-03-06T13:12:52.958Z,4.20
2019-03-06T13:15:26.409Z,3.47
2019-03-06T13:17:53.836Z,5.40
2019-03-06T13:20:21.318Z,6.33
2019-03-06T13:22:50.146Z,4.33
2019-03-06T13:25:20.005Z,4.60
2019-03-06T13:27:54.420Z,5.17
2019-03-06T13:30:15.876Z,4.03
2019-03-06T13:33:00.360Z,4.90
2019-03-06T13:35:27.812Z,4.77
2019-03-06T13:37:56.186Z,3.83
2019-03-06T13:40:25.794Z,5.93
2019-03-06T13:42:53.231Z,7.67
2019-03-06T13:45:20.708Z,7.27
2019-03-06T13:47:50.936Z,6.43
2019-03-06T13:50:16.816Z,6.33
2019-03-06T13:52:46.763Z,6.47
2019-03-06T13:55:14.195Z,4.27
2019-03-06T13:57:41.656Z,4.40
2019-03-06T14:00:17.943Z,5.73
2019-03-06T14:02:45.453Z,7.63
2019-03-06T14:05:12.977Z,4.23
2019-03-06T14:07:40.479Z,6.97
2019-03-06T14:10:09.148Z,5.63
2019-03-06T14:12:38.083Z,7.30
2019-03-06T14:15:06.388Z,7.27
2019-03-06T14:17:33.829Z,4.27
2019-03-06T14:20:01.281Z,6.67
2019-03-06T14:22:28.687Z,6.97
2019-03-06T14:24:56.179Z,6.67
2019-03-06T14:27:23.613Z,6.53
2019-03-06T14:29:51.869Z,5.73
2019-03-06T14:32:19.335Z,7.23
2019-03-06T14:34:46.793Z,5.13
2019-03-06T14:37:14.216Z,5.73
2019-03-06T14:39:42.902Z,4.87
2019-03-06T14:42:10.662Z,4.77
2019-03-06T14:44:38.083Z,5.33
2019-03-06T14:47:05.544Z,6.47
2019-03-06T14:49:32.998Z,5.53
2019-03-06T14:52:06.935Z,5.40
2019-03-06T14:54:27.875Z,5.57
2019-03-06T14:56:55.305Z,6.13
2019-03-06T14:59:22.798Z,6.60
2019-03-06T15:01:50.235Z,4.37
2019-03-06T15:04:17.714Z,5.93
2019-03-06T15:06:45.151Z,5.90
2019-03-06T15:09:12.853Z,6.27
2019-03-06T15:11:40.272Z,6.30
2019-03-06T15:14:07.763Z,7.90
2019-03-06T15:16:35.242Z,7.23
2019-03-06T15:19:03.884Z,3.70
2019-03-06T15:21:31.317Z,3.63
2019-03-06T15:23:58.801Z,6.10
2019-03-06T15:26:27.437Z,5.47
2019-03-06T15:28:54.861Z,5.50
2019-03-06T15:31:22.313Z,7.20
2019-03-06T15:33:49.766Z,5.70
2019-03-06T15:36:19.600Z,3.70
2019-03-06T15:38:47.534Z,5.13
2019-03-06T15:41:14.937Z,6.00
2019-03-06T15:43:43.927Z,6.33
2019-03-06T15:46:11.345Z,6.50
2019-03-06T15:48:38.800Z,7.57
2019-03-06T15:51:06.263Z,6.67
2019-03-06T15:53:35.128Z,8.60
2019-03-06T15:56:02.636Z,6.43
2019-03-06T15:58:32.844Z,12.27
2019-03-06T16:01:00.664Z,7.47
2019-03-06T16:03:29.069Z,8.33
2019-03-06T16:05:57.598Z,8.83
2019-03-06T16:08:25.049Z,5.93
2019-03-06T16:10:52.490Z,9.20
2019-03-06T16:13:19.919Z,7.33
2019-03-06T16:15:48.797Z,7.43
2019-03-06T16:18:16.256Z,4.80
2019-03-06T16:20:43.703Z,6.57
2019-03-06T16:23:11.161Z,10.43
2019-03-06T16:25:40.144Z,7.23
2019-03-06T16:28:06.007Z,6.13
2019-03-06T16:30:33.491Z,6.90
2019-03-06T16:33:00.921Z,8.03
2019-03-06T16:35:28.347Z,5.63
2019-03-06T16:37:56.157Z,6.80
2019-03-06T16:40:23.571Z,6.20
2019-03-06T16:42:50.990Z,12.33
2019-03-06T16:45:18.476Z,6.97
2019-03-06T16:47:45.908Z,6.67
2019-03-06T16:50:16.177Z,8.53
2019-03-06T16:52:40.820Z,6.17
2019-03-06T16:55:13.983Z,7.90
2019-03-06T16:57:41.394Z,8.27
2019-03-06T17:00:21.156Z,8.13
2019-03-06T17:02:48.563Z,8.20
2019-03-06T17:05:16.021Z,8.53
2019-03-06T17:07:43.434Z,7.33
2019-03-06T17:10:14.624Z,7.77
2019-03-06T17:12:42.048Z,8.37
2019-03-06T17:15:09.479Z,9.20
2019-03-06T17:17:37.953Z,7.87
2019-03-06T17:20:05.386Z,8.70
2019-03-06T17:22:33.901Z,9.40
2019-03-06T17:25:01.375Z,8.80
2019-03-06T17:27:28.792Z,7.67
2019-03-06T17:29:56.234Z,7.93
2019-03-06T17:32:25.918Z,6.97
2019-03-06T17:34:53.326Z,8.70
2019-03-06T17:37:20.814Z,6.63
2019-03-06T17:39:48.470Z,5.40
2019-03-06T17:42:15.952Z,11.90
2019-03-06T17:44:43.362Z,8.83
2019-03-06T17:47:10.790Z,7.90
2019-03-06T17:49:38.191Z,8.30
2019-03-06T17:52:07.395Z,11.20
2019-03-06T17:54:33.115Z,9.27
2019-03-06T17:57:00.558Z,10.70
2019-03-06T17:59:27.971Z,8.47
2019-03-06T18:01:55.414Z,7.53
2019-03-06T18:04:22.880Z,7.50
2019-03-06T18:06:50.309Z,8.63
2019-03-06T18:09:18.590Z,6.77
2019-03-06T18:11:46.006Z,7.93
2019-03-06T18:14:20.499Z,11.40
2019-03-06T18:16:47.986Z,8.70
2019-03-06T18:19:16.835Z,5.67
2019-03-06T18:21:49.176Z,8.93
2019-03-06T18:24:16.589Z,7.53
2019-03-06T18:26:44.125Z,8.77
2019-03-06T18:29:11.525Z,10.97
2019-03-06T18:31:38.970Z,9.43
2019-03-06T18:34:06.392Z,7.07
2019-03-06T18:36:33.829Z,7.40
2019-03-06T18:39:01.238Z,9.97
2019-03-06T18:41:29.581Z,7.63
2019-03-06T18:44:04.232Z,8.53
2019-03-06T18:46:31.638Z,9.97
2019-03-06T18:48:59.095Z,13.90
2019-03-06T18:51:26.518Z,10.60
2019-03-06T18:53:53.934Z,7.67
2019-03-06T18:56:21.383Z,10.30
2019-03-06T18:58:48.794Z,8.27
2019-03-06T19:01:16.257Z,11.47
2019-03-06T19:03:43.703Z,8.37
2019-03-06T19:06:11.423Z,9.63
2019-03-06T19:08:38.884Z,9.17
2019-03-06T19:11:06.302Z,7.77
2019-03-06T19:13:33.889Z,9.20
2019-03-06T19:16:02.359Z,10.00
2019-03-06T19:18:30.755Z,8.63
2019-03-06T19:21:00.947Z,10.87
2019-03-06T19:23:28.361Z,10.53
2019-03-06T19:25:55.814Z,10.80
2019-03-06T19:28:24.669Z,11.43
2019-03-06T19:30:52.174Z,10.13
2019-03-06T19:33:19.603Z,12.07
2019-03-06T19:35:47.047Z,12.40
2019-03-06T19:38:14.457Z,10.20
2019-03-06T19:40:41.892Z,11.90
2019-03-06T19:43:09.309Z,12.13
2019-03-06T19:45:36.752Z,12.13
2019-03-06T19:48:04.167Z,11.03
2019-03-06T19:50:31.638Z,12.70
2019-03-06T19:52:59.107Z,10.37
2019-03-06T19:55:27.804Z,11.63
2019-03-06T19:57:56.504Z,9.10
2019-03-06T20:00:23.929Z,11.90
2019-03-06T20:02:51.386Z,13.03
2019-03-06T20:05:18.918Z,12.77
2019-03-06T20:07:47.202Z,12.97
2019-03-06T20:10:13.772Z,13.13
2019-03-06T20:12:41.207Z,15.63
2019-03-06T20:15:08.657Z,10.73
2019-03-06T20:17:36.136Z,11.70
2019-03-06T20:20:03.598Z,11.30
2019-03-06T20:22:31.028Z,15.03
2019-03-06T20:24:58.557Z,11.53
2019-03-06T20:27:25.965Z,15.90
2019-03-06T20:29:53.445Z,11.73
2019-03-06T20:32:20.972Z,11.60
2019-03-06T20:34:48.428Z,9.53
2019-03-06T20:37:15.922Z,11.33
2019-03-06T20:39:43.375Z,13.57
2019-03-06T20:42:10.820Z,10.40
2019-03-06T20:44:38.293Z,11.93
2019-03-06T20:47:05.732Z,12.53
2019-03-06T20:49:35.979Z,12.37
2019-03-06T20:52:03.442Z,12.83
2019-03-06T20:54:30.916Z,11.80
2019-03-06T20:56:58.373Z,11.03
2019-03-06T20:59:25.827Z,10.77
2019-03-06T21:02:00.454Z,11.67
2019-03-06T21:04:27.862Z,14.30
2019-03-06T21:06:55.299Z,11.23
2019-03-06T21:09:22.714Z,16.67
2019-03-06T21:11:50.139Z,13.63
2019-03-06T21:14:17.623Z,14.10
2019-03-06T21:16:45.064Z,12.23
2019-03-06T21:19:12.473Z,13.53
2019-03-06T21:21:39.880Z,11.53
2019-03-06T21:24:07.412Z,12.27
2019-03-06T21:26:34.851Z,12.37
2019-03-06T21:29:02.298Z,10.53
2019-03-06T21:31:29.728Z,9.87
2019-03-06T21:33:59.878Z,13.03
2019-03-06T21:36:27.397Z,9.67
2019-03-06T21:38:54.874Z,16.13
2019-03-06T21:41:22.311Z,13.00
2019-03-06T21:43:51.807Z,9.43
2019-03-06T21:46:19.211Z,14.47
2019-03-06T21:48:46.659Z,10.07
2019-03-06T21:51:14.096Z,11.60
2019-03-06T21:53:41.547Z,14.80
2019-03-06T21:56:08.989Z,10.33
2019-03-06T21:58:36.454Z,8.90
2019-03-06T22:01:03.913Z,12.37
2019-03-06T22:03:31.397Z,8.57
2019-03-06T22:05:58.813Z,8.97
2019-03-06T22:08:26.341Z,8.67
2019-03-06T22:10:59.414Z,10.60
2019-03-06T22:13:26.926Z,10.33
2019-03-06T22:15:54.447Z,12.73
2019-03-06T22:18:22.075Z,10.33
2019-03-06T22:20:49.631Z,11.63
2019-03-06T22:23:19.182Z,8.97
2019-03-06T22:25:44.821Z,7.77
2019-03-06T22:28:12.303Z,11.50
2019-03-06T22:30:39.796Z,8.17
2019-03-06T22:33:10.416Z,8.70
2019-03-06T22:35:40.433Z,9.77
2019-03-06T22:38:34.509Z,8.17
2019-03-06T22:40:43.914Z,10.00
2019-03-06T22:43:20.196Z,6.83
2019-03-06T22:45:53.301Z,8.17
2019-03-06T22:48:23.386Z,7.73
2019-03-06T22:50:50.983Z,8.40
2019-03-06T22:53:18.614Z,9.80
2019-03-06T22:55:46.034Z,9.17
2019-03-06T22:58:25.101Z,7.63
2019-03-06T23:00:57.368Z,10.60
2019-03-06T23:03:22.239Z,6.90
2019-03-06T23:05:49.642Z,6.13
2019-03-06T23:08:23.273Z,8.00
2019-03-06T23:10:50.821Z,6.87
2019-03-06T23:13:18.285Z,6.50
2019-03-06T23:15:48.061Z,6.73
2019-03-06T23:18:15.537Z,7.40
2019-03-06T23:20:43.002Z,7.83
2019-03-06T23:23:10.444Z,14.00
2019-03-06T23:25:37.850Z,7.20
2019-03-06T23:28:05.281Z,8.47
2019-03-06T23:30:32.695Z,6.87
2019-03-06T23:33:00.115Z,6.50
2019-03-06T23:35:27.552Z,8.37
2019-03-06T23:37:54.967Z,8.60
2019-03-06T23:40:22.410Z,6.53
2019-03-06T23:42:49.811Z,8.87
2019-03-06T23:45:17.209Z,6.40
2019-03-06T23:47:44.645Z,7.23
2019-03-06T23:50:12.057Z,7.53
2019-03-06T23:52:54.757Z,6.37
2019-03-06T23:55:22.149Z,9.00
2019-03-06T23:57:49.609Z,7.53
